sensor_id;sensor_type;location;lat;lon;timestamp;noise_LAeq;noise_LA_min;noise_LA_max;noise_LA01;noise_LA95
40465;Laerm;30489;48.982;8.394;2024-01-30T00:01:29;39.35;37.12;40.98;;
40465;Laerm;30489;48.982;8.394;2024-01-30T00:03:40;39.35;37.12;40.98;;
40465;Laerm;30489;48.982;8.394;2024-01-30T00:05:50;39.31;37.32;41.14;;
40465;Laerm;30489;48.982;8.394;2024-01-30T00:08:00;39.32;37.32;40.98;;
40465;Laerm;30489;48.982;8.394;2024-01-30T00:10:10;39.31;37.52;40.80;;
40465;Laerm;30489;48.982;8.394;2024-01-30T00:12:20;39.33;36.91;40.98;;
40465;Laerm;30489;48.982;8.394;2024-01-30T00:14:31;39.32;36.69;41.14;;
40465;Laerm;30489;48.982;8.394;2024-01-30T00:16:41;39.32;37.35;40.89;;
40465;Laerm;30489;48.982;8.394;2024-01-30T00:18:51;39.31;37.32;41.38;;
40465;Laerm;30489;48.982;8.394;2024-01-30T00:21:02;39.32;37.52;41.06;;
40465;Laerm;30489;48.982;8.394;2024-01-30T00:23:13;39.30;37.32;41.06;;
40465;Laerm;30489;48.982;8.394;2024-01-30T00:25:23;39.30;37.12;40.98;;
40465;Laerm;30489;48.982;8.394;2024-01-30T00:27:33;39.34;37.12;40.98;;
40465;Laerm;30489;48.982;8.394;2024-01-30T00:29:43;39.33;37.32;41.22;;
40465;Laerm;30489;48.982;8.394;2024-01-30T00:31:54;39.32;37.17;41.06;;
40465;Laerm;30489;48.982;8.394;2024-01-30T00:34:04;39.33;37.32;41.14;;
40465;Laerm;30489;48.982;8.394;2024-01-30T00:36:14;39.34;36.69;40.89;;
40465;Laerm;30489;48.982;8.394;2024-01-30T00:38:24;39.34;37.32;41.19;;
40465;Laerm;30489;48.982;8.394;2024-01-30T00:40:35;39.35;37.52;41.06;;
40465;Laerm;30489;48.982;8.394;2024-01-30T00:42:45;39.37;37.52;41.38;;
40465;Laerm;30489;48.982;8.394;2024-01-30T00:44:55;39.37;37.52;40.98;;
40465;Laerm;30489;48.982;8.394;2024-01-30T00:47:06;39.37;37.32;41.75;;
40465;Laerm;30489;48.982;8.394;2024-01-30T00:49:16;39.35;37.32;40.98;;
40465;Laerm;30489;48.982;8.394;2024-01-30T00:51:26;39.36;37.52;40.98;;
40465;Laerm;30489;48.982;8.394;2024-01-30T00:53:39;39.34;37.12;41.06;;
40465;Laerm;30489;48.982;8.394;2024-01-30T00:55:51;39.34;37.12;41.06;;
40465;Laerm;30489;48.982;8.394;2024-01-30T00:58:01;39.36;37.32;41.14;;
40465;Laerm;30489;48.982;8.394;2024-01-30T01:00:13;39.36;37.32;41.06;;
40465;Laerm;30489;48.982;8.394;2024-01-30T01:02:25;39.33;37.32;40.98;;
40465;Laerm;30489;48.982;8.394;2024-01-30T01:04:36;39.34;37.32;41.38;;
40465;Laerm;30489;48.982;8.394;2024-01-30T01:06:46;39.32;37.32;41.06;;
40465;Laerm;30489;48.982;8.394;2024-01-30T01:08:56;39.30;36.91;48.20;;
40465;Laerm;30489;48.982;8.394;2024-01-30T01:11:07;39.27;37.52;40.80;;
40465;Laerm;30489;48.982;8.394;2024-01-30T01:13:17;39.28;36.69;41.06;;
40465;Laerm;30489;48.982;8.394;2024-01-30T01:15:27;39.27;37.32;40.89;;
40465;Laerm;30489;48.982;8.394;2024-01-30T01:17:38;39.25;36.69;41.14;;
40465;Laerm;30489;48.982;8.394;2024-01-30T01:19:48;39.27;37.32;40.89;;
40465;Laerm;30489;48.982;8.394;2024-01-30T01:21:58;39.24;36.91;41.14;;
40465;Laerm;30489;48.982;8.394;2024-01-30T01:24:09;39.23;37.32;40.89;;
40465;Laerm;30489;48.982;8.394;2024-01-30T01:26:19;39.24;37.32;41.06;;
40465;Laerm;30489;48.982;8.394;2024-01-30T01:28:29;39.23;37.32;40.80;;
40465;Laerm;30489;48.982;8.394;2024-01-30T01:30:39;39.20;37.32;40.98;;
40465;Laerm;30489;48.982;8.394;2024-01-30T01:32:50;39.20;36.91;40.80;;
40465;Laerm;30489;48.982;8.394;2024-01-30T01:35:04;39.22;37.12;40.89;;
40465;Laerm;30489;48.982;8.394;2024-01-30T01:37:18;39.22;36.91;41.14;;
40465;Laerm;30489;48.982;8.394;2024-01-30T01:39:28;39.20;37.32;40.89;;
40465;Laerm;30489;48.982;8.394;2024-01-30T01:41:38;39.22;37.32;41.06;;
40465;Laerm;30489;48.982;8.394;2024-01-30T01:43:48;39.20;36.91;40.89;;
40465;Laerm;30489;48.982;8.394;2024-01-30T01:45:58;39.22;36.91;40.89;;
40465;Laerm;30489;48.982;8.394;2024-01-30T01:48:09;39.21;37.12;43.99;;
40465;Laerm;30489;48.982;8.394;2024-01-30T01:50:20;39.24;36.91;40.98;;
40465;Laerm;30489;48.982;8.394;2024-01-30T01:52:30;39.24;37.12;40.89;;
40465;Laerm;30489;48.982;8.394;2024-01-30T01:54:41;39.22;37.12;40.89;;
40465;Laerm;30489;48.982;8.394;2024-01-30T01:56:51;39.23;37.12;41.06;;
40465;Laerm;30489;48.982;8.394;2024-01-30T01:59:06;39.23;37.12;40.89;;
40465;Laerm;30489;48.982;8.394;2024-01-30T02:01:18;39.24;37.12;40.80;;
40465;Laerm;30489;48.982;8.394;2024-01-30T02:03:30;39.27;37.32;41.06;;
40465;Laerm;30489;48.982;8.394;2024-01-30T02:05:41;39.23;36.91;41.06;;
40465;Laerm;30489;48.982;8.394;2024-01-30T02:07:51;39.26;36.69;41.14;;
40465;Laerm;30489;48.982;8.394;2024-01-30T02:10:02;39.24;37.32;40.89;;
40465;Laerm;30489;48.982;8.394;2024-01-30T02:12:13;39.26;36.91;41.06;;
40465;Laerm;30489;48.982;8.394;2024-01-30T02:14:23;39.26;37.12;41.89;;
40465;Laerm;30489;48.982;8.394;2024-01-30T02:16:34;39.27;37.12;41.22;;
40465;Laerm;30489;48.982;8.394;2024-01-30T02:18:44;39.27;36.91;40.89;;
40465;Laerm;30489;48.982;8.394;2024-01-30T02:20:58;39.27;37.12;40.89;;
40465;Laerm;30489;48.982;8.394;2024-01-30T02:23:09;39.30;37.12;41.06;;
40465;Laerm;30489;48.982;8.394;2024-01-30T02:25:20;39.29;37.52;40.98;;
40465;Laerm;30489;48.982;8.394;2024-01-30T02:27:30;39.29;37.32;40.98;;
40465;Laerm;30489;48.982;8.394;2024-01-30T02:29:40;39.30;37.12;40.89;;
40465;Laerm;30489;48.982;8.394;2024-01-30T02:31:50;39.32;37.32;41.14;;
40465;Laerm;30489;48.982;8.394;2024-01-30T02:34:01;39.32;37.32;41.22;;
40465;Laerm;30489;48.982;8.394;2024-01-30T02:36:11;39.30;37.32;41.06;;
40465;Laerm;30489;48.982;8.394;2024-01-30T02:38:21;39.32;37.32;41.14;;
40465;Laerm;30489;48.982;8.394;2024-01-30T02:40:31;39.30;37.32;41.06;;
40465;Laerm;30489;48.982;8.394;2024-01-30T02:42:42;39.32;37.17;41.14;;
40465;Laerm;30489;48.982;8.394;2024-01-30T02:44:52;39.31;37.32;40.89;;
40465;Laerm;30489;48.982;8.394;2024-01-30T02:47:02;39.30;36.91;41.14;;
40465;Laerm;30489;48.982;8.394;2024-01-30T02:49:12;39.31;37.52;41.11;;
40465;Laerm;30489;48.982;8.394;2024-01-30T02:51:23;39.31;37.52;40.98;;
40465;Laerm;30489;48.982;8.394;2024-01-30T02:53:33;39.31;36.91;41.22;;
40465;Laerm;30489;48.982;8.394;2024-01-30T02:55:43;39.30;37.32;40.98;;
40465;Laerm;30489;48.982;8.394;2024-01-30T02:57:53;39.32;37.52;40.98;;
40465;Laerm;30489;48.982;8.394;2024-01-30T03:00:04;39.34;37.12;40.98;;
40465;Laerm;30489;48.982;8.394;2024-01-30T03:02:16;39.33;37.32;40.98;;
40465;Laerm;30489;48.982;8.394;2024-01-30T03:04:26;39.33;37.12;41.14;;
40465;Laerm;30489;48.982;8.394;2024-01-30T03:06:36;39.34;37.12;41.06;;
40465;Laerm;30489;48.982;8.394;2024-01-30T03:08:46;39.34;37.52;41.26;;
40465;Laerm;30489;48.982;8.394;2024-01-30T03:10:57;39.36;36.91;40.98;;
40465;Laerm;30489;48.982;8.394;2024-01-30T03:13:07;39.36;37.52;40.98;;
40465;Laerm;30489;48.982;8.394;2024-01-30T03:15:17;39.35;37.52;40.98;;
40465;Laerm;30489;48.982;8.394;2024-01-30T03:17:27;39.35;37.12;41.06;;
40465;Laerm;30489;48.982;8.394;2024-01-30T03:19:37;39.35;37.12;40.89;;
40465;Laerm;30489;48.982;8.394;2024-01-30T03:21:48;39.37;37.32;41.22;;
40465;Laerm;30489;48.982;8.394;2024-01-30T03:23:58;39.39;37.32;41.06;;
40465;Laerm;30489;48.982;8.394;2024-01-30T03:26:09;39.37;37.35;41.38;;
40465;Laerm;30489;48.982;8.394;2024-01-30T03:28:21;39.35;37.12;41.14;;
40465;Laerm;30489;48.982;8.394;2024-01-30T03:30:31;39.34;37.12;40.80;;
40465;Laerm;30489;48.982;8.394;2024-01-30T03:32:42;39.32;37.35;41.14;;
40465;Laerm;30489;48.982;8.394;2024-01-30T03:34:52;39.29;36.45;40.89;;
40465;Laerm;30489;48.982;8.394;2024-01-30T03:37:02;39.29;37.32;40.89;;
40465;Laerm;30489;48.982;8.394;2024-01-30T03:39:13;39.29;37.32;40.89;;
40465;Laerm;30489;48.982;8.394;2024-01-30T03:41:23;39.28;37.32;41.14;;
40465;Laerm;30489;48.982;8.394;2024-01-30T03:43:33;39.28;37.52;40.98;;
40465;Laerm;30489;48.982;8.394;2024-01-30T03:45:43;39.27;37.12;41.14;;
40465;Laerm;30489;48.982;8.394;2024-01-30T03:47:53;39.29;37.52;41.06;;
40465;Laerm;30489;48.982;8.394;2024-01-30T03:50:04;39.27;37.32;40.98;;
40465;Laerm;30489;48.982;8.394;2024-01-30T03:52:14;39.28;37.32;41.14;;
40465;Laerm;30489;48.982;8.394;2024-01-30T03:54:25;39.29;37.12;41.22;;
40465;Laerm;30489;48.982;8.394;2024-01-30T03:56:35;39.28;37.32;40.80;;
40465;Laerm;30489;48.982;8.394;2024-01-30T03:58:45;39.29;37.32;40.98;;
40465;Laerm;30489;48.982;8.394;2024-01-30T04:00:56;39.29;37.52;41.06;;
40465;Laerm;30489;48.982;8.394;2024-01-30T04:03:06;39.29;37.32;40.80;;
40465;Laerm;30489;48.982;8.394;2024-01-30T04:05:17;39.29;36.91;40.96;;
40465;Laerm;30489;48.982;8.394;2024-01-30T04:07:27;39.26;37.32;41.14;;
40465;Laerm;30489;48.982;8.394;2024-01-30T04:09:38;39.27;37.32;41.22;;
40465;Laerm;30489;48.982;8.394;2024-01-30T04:11:48;39.26;36.91;41.22;;
40465;Laerm;30489;48.982;8.394;2024-01-30T04:13:58;39.27;37.32;40.88;;
40465;Laerm;30489;48.982;8.394;2024-01-30T04:16:18;39.28;37.32;41.06;;
40465;Laerm;30489;48.982;8.394;2024-01-30T04:18:29;39.27;37.32;40.89;;
40465;Laerm;30489;48.982;8.394;2024-01-30T04:20:39;39.28;36.91;41.14;;
40465;Laerm;30489;48.982;8.394;2024-01-30T04:22:49;39.28;37.12;40.89;;
40465;Laerm;30489;48.982;8.394;2024-01-30T04:25:00;39.27;37.32;40.98;;
40465;Laerm;30489;48.982;8.394;2024-01-30T04:27:10;39.28;37.32;41.06;;
40465;Laerm;30489;48.982;8.394;2024-01-30T04:29:20;39.27;36.69;40.71;;
40465;Laerm;30489;48.982;8.394;2024-01-30T04:31:32;39.27;37.12;41.06;;
40465;Laerm;30489;48.982;8.394;2024-01-30T04:33:42;39.28;37.12;40.98;;
40465;Laerm;30489;48.982;8.394;2024-01-30T04:35:52;39.28;37.12;40.71;;
40465;Laerm;30489;48.982;8.394;2024-01-30T04:38:03;39.30;37.12;40.98;;
40465;Laerm;30489;48.982;8.394;2024-01-30T04:40:13;39.29;37.12;40.96;;
40465;Laerm;30489;48.982;8.394;2024-01-30T04:42:23;39.30;37.12;41.06;;
40465;Laerm;30489;48.982;8.394;2024-01-30T04:44:34;39.28;37.32;40.98;;
40465;Laerm;30489;48.982;8.394;2024-01-30T04:46:44;39.31;37.32;41.38;;
40465;Laerm;30489;48.982;8.394;2024-01-30T04:48:54;39.31;37.52;40.89;;
40465;Laerm;30489;48.982;8.394;2024-01-30T04:51:04;39.31;37.12;40.98;;
40465;Laerm;30489;48.982;8.394;2024-01-30T04:53:14;39.28;36.91;40.89;;
40465;Laerm;30489;48.982;8.394;2024-01-30T04:55:25;39.30;37.12;40.89;;
40465;Laerm;30489;48.982;8.394;2024-01-30T04:57:35;39.29;37.12;40.89;;
40465;Laerm;30489;48.982;8.394;2024-01-30T04:59:45;39.29;37.52;41.06;;
40465;Laerm;30489;48.982;8.394;2024-01-30T05:01:55;39.30;37.32;40.89;;
40465;Laerm;30489;48.982;8.394;2024-01-30T05:04:09;39.29;37.12;40.89;;
40465;Laerm;30489;48.982;8.394;2024-01-30T05:06:25;39.29;36.69;41.06;;
40465;Laerm;30489;48.982;8.394;2024-01-30T05:08:36;39.31;36.91;40.89;;
40465;Laerm;30489;48.982;8.394;2024-01-30T05:10:49;39.28;37.17;40.89;;
40465;Laerm;30489;48.982;8.394;2024-01-30T05:12:59;39.27;37.12;41.14;;
40465;Laerm;30489;48.982;8.394;2024-01-30T05:15:09;39.28;36.91;41.30;;
40465;Laerm;30489;48.982;8.394;2024-01-30T05:17:19;39.28;37.32;40.89;;
40465;Laerm;30489;48.982;8.394;2024-01-30T05:19:30;39.26;37.32;40.80;;
40465;Laerm;30489;48.982;8.394;2024-01-30T05:21:40;39.27;37.12;40.80;;
40465;Laerm;30489;48.982;8.394;2024-01-30T05:23:51;39.26;37.12;40.98;;
40465;Laerm;30489;48.982;8.394;2024-01-30T05:26:01;39.24;37.32;40.98;;
40465;Laerm;30489;48.982;8.394;2024-01-30T05:28:12;39.23;37.12;40.80;;
40465;Laerm;30489;48.982;8.394;2024-01-30T05:30:22;39.26;36.91;40.89;;
40465;Laerm;30489;48.982;8.394;2024-01-30T05:32:32;39.26;37.12;40.89;;
40465;Laerm;30489;48.982;8.394;2024-01-30T05:34:43;39.27;36.91;41.06;;
40465;Laerm;30489;48.982;8.394;2024-01-30T05:36:53;39.29;37.32;41.14;;
40465;Laerm;30489;48.982;8.394;2024-01-30T05:39:03;39.26;37.32;40.98;;
40465;Laerm;30489;48.982;8.394;2024-01-30T05:41:13;39.27;36.91;41.14;;
40465;Laerm;30489;48.982;8.394;2024-01-30T05:43:24;39.25;36.45;41.22;;
40465;Laerm;30489;48.982;8.394;2024-01-30T05:45:34;39.26;36.91;40.71;;
40465;Laerm;30489;48.982;8.394;2024-01-30T05:47:45;39.26;37.12;40.89;;
40465;Laerm;30489;48.982;8.394;2024-01-30T05:49:56;39.26;36.45;40.96;;
40465;Laerm;30489;48.982;8.394;2024-01-30T05:52:06;39.27;37.52;40.89;;
40465;Laerm;30489;48.982;8.394;2024-01-30T05:54:16;39.28;37.12;40.71;;
40465;Laerm;30489;48.982;8.394;2024-01-30T05:56:26;39.28;37.12;40.98;;
40465;Laerm;30489;48.982;8.394;2024-01-30T05:58:38;39.28;37.32;41.06;;
40465;Laerm;30489;48.982;8.394;2024-01-30T06:00:48;39.27;37.12;41.38;;
40465;Laerm;30489;48.982;8.394;2024-01-30T06:02:58;39.27;37.12;40.98;;
40465;Laerm;30489;48.982;8.394;2024-01-30T06:05:08;39.24;37.32;40.80;;
40465;Laerm;30489;48.982;8.394;2024-01-30T06:07:19;39.27;37.12;41.06;;
40465;Laerm;30489;48.982;8.394;2024-01-30T06:09:29;39.27;37.32;40.98;;
40465;Laerm;30489;48.982;8.394;2024-01-30T06:11:39;39.27;36.91;41.06;;
40465;Laerm;30489;48.982;8.394;2024-01-30T06:13:49;39.28;37.32;40.98;;
40465;Laerm;30489;48.982;8.394;2024-01-30T06:16:00;39.29;37.32;40.89;;
40465;Laerm;30489;48.982;8.394;2024-01-30T06:18:10;39.31;37.32;41.14;;
40465;Laerm;30489;48.982;8.394;2024-01-30T06:20:20;39.30;37.12;40.98;;
40465;Laerm;30489;48.982;8.394;2024-01-30T06:22:30;39.28;37.32;40.89;;
40465;Laerm;30489;48.982;8.394;2024-01-30T06:24:40;39.27;37.35;41.14;;
40465;Laerm;30489;48.982;8.394;2024-01-30T06:26:51;39.28;36.91;41.22;;
40465;Laerm;30489;48.982;8.394;2024-01-30T06:29:01;39.29;37.52;41.14;;
40465;Laerm;30489;48.982;8.394;2024-01-30T06:31:11;39.28;37.17;40.89;;
40465;Laerm;30489;48.982;8.394;2024-01-30T06:33:21;39.26;36.69;40.98;;
40465;Laerm;30489;48.982;8.394;2024-01-30T06:35:33;39.30;37.32;40.98;;
40465;Laerm;30489;48.982;8.394;2024-01-30T06:37:46;39.29;37.32;40.98;;
40465;Laerm;30489;48.982;8.394;2024-01-30T06:39:56;39.28;37.12;41.14;;
40465;Laerm;30489;48.982;8.394;2024-01-30T06:42:06;39.30;37.12;41.06;;
40465;Laerm;30489;48.982;8.394;2024-01-30T06:44:16;39.28;37.32;41.30;;
40465;Laerm;30489;48.982;8.394;2024-01-30T06:46:26;39.29;37.12;41.06;;
40465;Laerm;30489;48.982;8.394;2024-01-30T06:48:37;39.29;37.32;41.22;;
40465;Laerm;30489;48.982;8.394;2024-01-30T06:50:53;39.32;37.32;41.19;;
40465;Laerm;30489;48.982;8.394;2024-01-30T06:53:03;39.30;37.32;40.98;;
40465;Laerm;30489;48.982;8.394;2024-01-30T06:55:14;39.31;37.32;41.14;;
40465;Laerm;30489;48.982;8.394;2024-01-30T06:57:24;39.29;37.12;40.80;;
40465;Laerm;30489;48.982;8.394;2024-01-30T06:59:34;39.27;37.32;41.06;;
40465;Laerm;30489;48.982;8.394;2024-01-30T07:01:45;39.27;37.12;41.11;;
40465;Laerm;30489;48.982;8.394;2024-01-30T07:03:55;39.26;37.12;40.89;;
40465;Laerm;30489;48.982;8.394;2024-01-30T07:06:05;39.26;37.32;40.89;;
40465;Laerm;30489;48.982;8.394;2024-01-30T07:08:16;39.26;36.91;41.53;;
40465;Laerm;30489;48.982;8.394;2024-01-30T07:10:29;39.25;37.32;41.14;;
40465;Laerm;30489;48.982;8.394;2024-01-30T07:12:39;39.25;37.32;41.22;;
40465;Laerm;30489;48.982;8.394;2024-01-30T07:14:50;39.24;37.32;40.80;;
40465;Laerm;30489;48.982;8.394;2024-01-30T07:17:00;39.24;36.45;41.30;;
40465;Laerm;30489;48.982;8.394;2024-01-30T07:19:10;39.24;37.12;40.89;;
40465;Laerm;30489;48.982;8.394;2024-01-30T07:21:21;39.24;36.91;40.80;;
40465;Laerm;30489;48.982;8.394;2024-01-30T07:23:35;39.23;37.32;40.71;;
40465;Laerm;30489;48.982;8.394;2024-01-30T07:25:45;39.22;37.32;41.22;;
40465;Laerm;30489;48.982;8.394;2024-01-30T07:27:56;39.20;36.69;41.22;;
40465;Laerm;30489;48.982;8.394;2024-01-30T07:30:06;39.20;37.12;40.89;;
40465;Laerm;30489;48.982;8.394;2024-01-30T07:32:17;39.23;37.12;40.89;;
40465;Laerm;30489;48.982;8.394;2024-01-30T07:34:27;39.22;37.32;41.06;;
40465;Laerm;30489;48.982;8.394;2024-01-30T07:36:37;39.21;37.12;40.98;;
40465;Laerm;30489;48.982;8.394;2024-01-30T07:38:47;39.22;37.12;40.80;;
40465;Laerm;30489;48.982;8.394;2024-01-30T07:40:58;39.22;36.91;40.98;;
40465;Laerm;30489;48.982;8.394;2024-01-30T07:43:08;39.20;36.69;40.80;;
40465;Laerm;30489;48.982;8.394;2024-01-30T07:45:19;39.20;37.12;40.98;;
40465;Laerm;30489;48.982;8.394;2024-01-30T07:47:32;39.20;36.69;40.89;;
40465;Laerm;30489;48.982;8.394;2024-01-30T07:49:42;39.20;37.12;40.98;;
40465;Laerm;30489;48.982;8.394;2024-01-30T07:51:52;39.19;37.12;40.98;;
40465;Laerm;30489;48.982;8.394;2024-01-30T07:54:03;39.16;36.91;40.89;;
40465;Laerm;30489;48.982;8.394;2024-01-30T07:56:13;39.15;37.12;40.98;;
40465;Laerm;30489;48.982;8.394;2024-01-30T07:58:23;39.17;37.12;40.89;;
40465;Laerm;30489;48.982;8.394;2024-01-30T08:00:33;39.15;36.91;40.71;;
40465;Laerm;30489;48.982;8.394;2024-01-30T08:02:44;39.16;37.12;40.96;;
40465;Laerm;30489;48.982;8.394;2024-01-30T08:04:54;39.15;37.32;40.80;;
40465;Laerm;30489;48.982;8.394;2024-01-30T08:07:04;39.16;36.45;41.14;;
40465;Laerm;30489;48.982;8.394;2024-01-30T08:09:14;39.15;36.91;40.80;;
40465;Laerm;30489;48.982;8.394;2024-01-30T08:11:25;39.15;36.69;40.80;;
40465;Laerm;30489;48.982;8.394;2024-01-30T08:13:36;39.15;37.12;40.80;;
40465;Laerm;30489;48.982;8.394;2024-01-30T08:15:47;39.15;37.12;40.89;;
40465;Laerm;30489;48.982;8.394;2024-01-30T08:17:57;39.14;36.91;40.98;;
40465;Laerm;30489;48.982;8.394;2024-01-30T08:20:08;39.15;37.12;41.14;;
40465;Laerm;30489;48.982;8.394;2024-01-30T08:22:20;39.15;37.12;41.06;;
40465;Laerm;30489;48.982;8.394;2024-01-30T08:24:30;39.14;36.91;40.80;;
40465;Laerm;30489;48.982;8.394;2024-01-30T08:26:41;39.14;37.12;41.14;;
40465;Laerm;30489;48.982;8.394;2024-01-30T08:28:51;39.13;37.12;40.71;;
40465;Laerm;30489;48.982;8.394;2024-01-30T08:31:03;39.09;37.12;40.80;;
40465;Laerm;30489;48.982;8.394;2024-01-30T08:33:13;39.07;36.91;40.80;;
40465;Laerm;30489;48.982;8.394;2024-01-30T08:35:24;39.07;36.91;40.80;;
40465;Laerm;30489;48.982;8.394;2024-01-30T08:37:34;39.10;37.12;41.06;;
40465;Laerm;30489;48.982;8.394;2024-01-30T08:39:44;39.07;36.91;42.41;;
40465;Laerm;30489;48.982;8.394;2024-01-30T08:41:54;39.08;36.91;40.80;;
40465;Laerm;30489;48.982;8.394;2024-01-30T08:44:05;39.08;37.12;40.80;;
40465;Laerm;30489;48.982;8.394;2024-01-30T08:46:18;39.10;36.45;40.62;;
40465;Laerm;30489;48.982;8.394;2024-01-30T08:48:28;39.10;37.12;40.98;;
40465;Laerm;30489;48.982;8.394;2024-01-30T08:50:39;39.12;36.91;40.80;;
40465;Laerm;30489;48.982;8.394;2024-01-30T08:52:49;39.11;36.69;40.89;;
40465;Laerm;30489;48.982;8.394;2024-01-30T08:54:59;39.13;36.91;41.06;;
40465;Laerm;30489;48.982;8.394;2024-01-30T08:57:10;39.13;37.12;40.89;;
40465;Laerm;30489;48.982;8.394;2024-01-30T08:59:20;39.14;37.32;40.80;;
40465;Laerm;30489;48.982;8.394;2024-01-30T09:01:30;39.14;36.45;40.89;;
40465;Laerm;30489;48.982;8.394;2024-01-30T09:03:40;39.14;37.12;42.98;;
40465;Laerm;30489;48.982;8.394;2024-01-30T09:05:53;39.11;36.69;40.71;;
40465;Laerm;30489;48.982;8.394;2024-01-30T09:08:03;39.10;36.45;40.89;;
40465;Laerm;30489;48.982;8.394;2024-01-30T09:10:13;39.10;36.91;40.89;;
40465;Laerm;30489;48.982;8.394;2024-01-30T09:12:23;39.09;36.91;40.80;;
40465;Laerm;30489;48.982;8.394;2024-01-30T09:14:34;39.11;37.12;42.98;;
40465;Laerm;30489;48.982;8.394;2024-01-30T09:16:44;39.23;37.12;40.80;;
40465;Laerm;30489;48.982;8.394;2024-01-30T09:18:55;39.19;36.45;40.80;;
40465;Laerm;30489;48.982;8.394;2024-01-30T09:21:05;39.16;36.91;40.80;;
40465;Laerm;30489;48.982;8.394;2024-01-30T09:23:15;39.17;36.45;41.68;;
40465;Laerm;30489;48.982;8.394;2024-01-30T09:25:27;39.17;36.45;40.89;;
40465;Laerm;30489;48.982;8.394;2024-01-30T09:27:37;39.18;37.12;41.61;;
40465;Laerm;30489;48.982;8.394;2024-01-30T09:29:47;39.18;37.12;40.89;;
40465;Laerm;30489;48.982;8.394;2024-01-30T09:31:58;39.18;37.12;40.80;;
40465;Laerm;30489;48.982;8.394;2024-01-30T09:34:08;39.22;36.91;40.80;;
40465;Laerm;30489;48.982;8.394;2024-01-30T09:36:18;39.18;37.12;40.89;;
40465;Laerm;30489;48.982;8.394;2024-01-30T09:38:29;39.14;36.91;40.89;;
40465;Laerm;30489;48.982;8.394;2024-01-30T09:40:40;39.12;37.12;40.89;;
40465;Laerm;30489;48.982;8.394;2024-01-30T09:42:51;39.09;36.91;40.89;;
40465;Laerm;30489;48.982;8.394;2024-01-30T09:45:02;39.11;36.45;40.80;;
40465;Laerm;30489;48.982;8.394;2024-01-30T09:47:14;39.13;37.12;40.98;;
40465;Laerm;30489;48.982;8.394;2024-01-30T09:49:25;39.14;37.12;41.38;;
40465;Laerm;30489;48.982;8.394;2024-01-30T09:51:35;39.17;37.12;40.89;;
40465;Laerm;30489;48.982;8.394;2024-01-30T09:53:46;39.17;36.45;40.98;;
40465;Laerm;30489;48.982;8.394;2024-01-30T09:55:56;39.19;36.91;42.71;;
40465;Laerm;30489;48.982;8.394;2024-01-30T09:58:07;39.23;37.12;41.06;;
40465;Laerm;30489;48.982;8.394;2024-01-30T10:00:18;39.24;37.32;41.14;;
40465;Laerm;30489;48.982;8.394;2024-01-30T10:02:28;39.24;37.12;42.35;;
40465;Laerm;30489;48.982;8.394;2024-01-30T10:04:38;39.21;37.32;41.06;;
40465;Laerm;30489;48.982;8.394;2024-01-30T10:06:49;39.22;37.32;40.80;;
40465;Laerm;30489;48.982;8.394;2024-01-30T10:08:59;39.25;36.69;41.38;;
40465;Laerm;30489;48.982;8.394;2024-01-30T10:11:09;39.23;36.91;41.14;;
40465;Laerm;30489;48.982;8.394;2024-01-30T10:13:20;39.27;37.12;41.06;;
40465;Laerm;30489;48.982;8.394;2024-01-30T10:15:30;39.28;37.12;41.53;;
40465;Laerm;30489;48.982;8.394;2024-01-30T10:17:40;39.31;37.12;41.22;;
40465;Laerm;30489;48.982;8.394;2024-01-30T10:19:50;39.35;37.32;42.09;;
40465;Laerm;30489;48.982;8.394;2024-01-30T10:22:01;39.38;37.52;43.09;;
40465;Laerm;30489;48.982;8.394;2024-01-30T10:24:11;39.38;37.32;40.89;;
40465;Laerm;30489;48.982;8.394;2024-01-30T10:26:23;39.39;37.12;41.26;;
40465;Laerm;30489;48.982;8.394;2024-01-30T10:28:34;39.39;37.32;41.06;;
40465;Laerm;30489;48.982;8.394;2024-01-30T10:30:44;39.40;37.32;40.89;;
40465;Laerm;30489;48.982;8.394;2024-01-30T10:32:54;39.62;37.32;41.68;;
40465;Laerm;30489;48.982;8.394;2024-01-30T10:35:04;40.45;38.05;43.14;;
40465;Laerm;30489;48.982;8.394;2024-01-30T10:37:15;39.47;37.52;41.22;;
40465;Laerm;30489;48.982;8.394;2024-01-30T10:39:28;40.27;37.88;44.35;;
40465;Laerm;30489;48.982;8.394;2024-01-30T10:41:42;41.42;38.05;46.07;;
40465;Laerm;30489;48.982;8.394;2024-01-30T10:43:57;39.67;37.32;42.98;;
40465;Laerm;30489;48.982;8.394;2024-01-30T10:46:15;40.19;37.70;43.44;;
40465;Laerm;30489;48.982;8.394;2024-01-30T10:48:29;39.86;37.32;44.31;;
40465;Laerm;30489;48.982;8.394;2024-01-30T10:50:40;39.55;37.70;41.06;;
40465;Laerm;30489;48.982;8.394;2024-01-30T10:52:52;39.59;37.70;41.22;;
40465;Laerm;30489;48.982;8.394;2024-01-30T10:55:02;39.64;37.88;45.17;;
40465;Laerm;30489;48.982;8.394;2024-01-30T10:57:14;39.66;37.70;41.22;;
40465;Laerm;30489;48.982;8.394;2024-01-30T10:59:25;39.65;37.88;41.14;;
40465;Laerm;30489;48.982;8.394;2024-01-30T11:01:37;39.65;37.70;41.22;;
40465;Laerm;30489;48.982;8.394;2024-01-30T11:03:49;39.67;37.70;41.46;;
40465;Laerm;30489;48.982;8.394;2024-01-30T11:06:00;39.70;37.52;41.22;;
40465;Laerm;30489;48.982;8.394;2024-01-30T11:08:12;39.69;37.88;41.14;;
40465;Laerm;30489;48.982;8.394;2024-01-30T11:10:24;39.74;37.88;41.22;;
40465;Laerm;30489;48.982;8.394;2024-01-30T11:12:38;39.77;38.05;41.41;;
40465;Laerm;30489;48.982;8.394;2024-01-30T11:15:06;39.78;38.05;41.30;;
40465;Laerm;30489;48.982;8.394;2024-01-30T11:17:17;39.79;37.70;41.30;;
40465;Laerm;30489;48.982;8.394;2024-01-30T11:19:30;39.83;37.87;41.38;;
40465;Laerm;30489;48.982;8.394;2024-01-30T11:21:43;39.85;38.21;41.46;;
40465;Laerm;30489;48.982;8.394;2024-01-30T11:23:54;39.86;38.05;41.30;;
40465;Laerm;30489;48.982;8.394;2024-01-30T11:26:05;39.88;37.87;41.38;;
40465;Laerm;30489;48.982;8.394;2024-01-30T11:28:15;39.94;38.21;41.53;;
40465;Laerm;30489;48.982;8.394;2024-01-30T11:30:27;39.95;38.37;41.46;;
40465;Laerm;30489;48.982;8.394;2024-01-30T11:32:38;39.94;38.21;41.22;;
40465;Laerm;30489;48.982;8.394;2024-01-30T11:34:48;39.95;38.21;41.61;;
40465;Laerm;30489;48.982;8.394;2024-01-30T11:36:59;39.99;38.21;41.53;;
40465;Laerm;30489;48.982;8.394;2024-01-30T11:39:13;40.03;38.05;41.38;;
40465;Laerm;30489;48.982;8.394;2024-01-30T11:41:25;40.03;38.21;41.46;;
40465;Laerm;30489;48.982;8.394;2024-01-30T11:43:35;40.07;38.37;41.61;;
40465;Laerm;30489;48.982;8.394;2024-01-30T11:45:46;40.07;38.32;41.61;;
40465;Laerm;30489;48.982;8.394;2024-01-30T11:47:57;40.09;38.21;41.38;;
40465;Laerm;30489;48.982;8.394;2024-01-30T11:50:07;40.08;38.21;42.41;;
40465;Laerm;30489;48.982;8.394;2024-01-30T11:52:20;40.19;38.67;42.59;;
40465;Laerm;30489;48.982;8.394;2024-01-30T11:54:30;40.23;38.52;42.88;;
40465;Laerm;30489;48.982;8.394;2024-01-30T11:56:41;40.21;38.52;41.82;;
40465;Laerm;30489;48.982;8.394;2024-01-30T11:58:52;40.21;38.52;41.68;;
40465;Laerm;30489;48.982;8.394;2024-01-30T12:01:02;40.30;38.81;41.68;;
40465;Laerm;30489;48.982;8.394;2024-01-30T12:03:12;40.38;38.67;41.68;;
40465;Laerm;30489;48.982;8.394;2024-01-30T12:05:23;40.43;38.95;41.82;;
40465;Laerm;30489;48.982;8.394;2024-01-30T12:07:33;40.43;38.81;41.75;;
40465;Laerm;30489;48.982;8.394;2024-01-30T12:09:52;40.48;38.95;41.96;;
40465;Laerm;30489;48.982;8.394;2024-01-30T12:12:02;40.47;38.67;41.89;;